sensor_id;sensor_type;location;lat;lon;timestamp;pressure;altitude;pressure_sealevel;temperature;humidity
57056;BME280;42945;51.718;5.324;2023-04-19T00:04:02;102851.13;;;7.55;100.00
57056;BME280;42945;51.718;5.324;2023-04-19T00:09:50;102486.59;;;7.64;100.00
57056;BME280;42945;51.718;5.324;2023-04-19T00:15:37;102492.09;;;7.52;100.00
57056;BME280;42945;51.718;5.324;2023-04-19T00:21:25;102456.88;;;7.53;100.00
57056;BME280;42945;51.718;5.324;2023-04-19T00:27:13;102351.31;;;7.06;100.00
57056;BME280;42945;51.718;5.324;2023-04-19T00:33:00;102519.97;;;7.68;100.00
57056;BME280;42945;51.718;5.324;2023-04-19T00:38:48;102440.06;;;7.58;100.00
57056;BME280;42945;51.718;5.324;2023-04-19T00:44:36;102468.84;;;7.72;100.00
57056;BME280;42945;51.718;5.324;2023-04-19T00:50:24;102467.16;;;7.68;100.00
57056;BME280;42945;51.718;5.324;2023-04-19T00:56:13;102381.47;;;6.93;100.00
57056;BME280;42945;51.718;5.324;2023-04-19T01:02:02;102468.88;;;7.69;100.00
57056;BME280;42945;51.718;5.324;2023-04-19T01:07:49;102401.63;;;7.43;100.00
57056;BME280;42945;51.718;5.324;2023-04-19T01:13:37;117016.53;;;91.82;100.00
57056;BME280;42945;51.718;5.324;2023-04-19T01:19:25;102195.53;;;6.70;100.00
57056;BME280;42945;51.718;5.324;2023-04-19T01:25:13;102307.31;;;7.50;100.00
57056;BME280;42945;51.718;5.324;2023-04-19T01:31:02;102376.56;;;7.64;100.00
57056;BME280;42945;51.718;5.324;2023-04-19T01:36:50;102310.56;;;7.63;100.00
57056;BME280;42945;51.718;5.324;2023-04-19T01:42:38;102422.50;;;8.38;100.00
57056;BME280;42945;51.718;5.324;2023-04-19T01:48:26;102449.78;;;8.42;100.00
57056;BME280;42945;51.718;5.324;2023-04-19T01:54:13;102460.34;;;8.42;100.00
57056;BME280;42945;51.718;5.324;2023-04-19T02:00:01;102087.38;;;7.12;100.00
57056;BME280;42945;51.718;5.324;2023-04-19T02:05:50;102432.13;;;8.41;100.00
57056;BME280;42945;51.718;5.324;2023-04-19T02:11:38;102546.53;;;8.90;100.00
57056;BME280;42945;51.718;5.324;2023-04-19T02:17:25;102321.09;;;7.22;100.00
57056;BME280;42945;51.718;5.324;2023-04-19T02:23:14;102444.16;;;7.73;100.00
57056;BME280;42945;51.718;5.324;2023-04-19T02:29:02;102345.28;;;6.99;100.00
57056;BME280;42945;51.718;5.324;2023-04-19T02:34:49;102402.59;;;7.38;100.00
57056;BME280;42945;51.718;5.324;2023-04-19T02:40:37;102552.97;;;7.92;100.00
57056;BME280;42945;51.718;5.324;2023-04-19T02:46:25;102497.03;;;7.72;100.00
57056;BME280;42945;51.718;5.324;2023-04-19T02:52:13;102432.69;;;7.29;100.00
57056;BME280;42945;51.718;5.324;2023-04-19T02:58:00;102402.97;;;7.19;100.00
57056;BME280;42945;51.718;5.324;2023-04-19T03:03:54;102534.47;;;7.92;100.00
57056;BME280;42945;51.718;5.324;2023-04-19T03:09:43;102337.06;;;6.66;100.00
57056;BME280;42945;51.718;5.324;2023-04-19T03:15:30;102502.09;;;7.33;100.00
57056;BME280;42945;51.718;5.324;2023-04-19T03:21:18;102569.44;;;8.06;100.00
57056;BME280;42945;51.718;5.324;2023-04-19T03:27:05;102479.97;;;7.41;100.00
57056;BME280;42945;51.718;5.324;2023-04-19T03:32:53;102430.63;;;7.45;100.00
57056;BME280;42945;51.718;5.324;2023-04-19T03:38:41;102679.78;;;8.87;100.00
57056;BME280;42945;51.718;5.324;2023-04-19T03:44:32;102432.47;;;7.41;100.00
57056;BME280;42945;51.718;5.324;2023-04-19T03:50:20;102454.50;;;7.39;100.00
57056;BME280;42945;51.718;5.324;2023-04-19T03:56:09;102327.22;;;6.76;100.00
57056;BME280;42945;51.718;5.324;2023-04-19T04:01:57;102453.44;;;7.49;100.00
57056;BME280;42945;51.718;5.324;2023-04-19T04:07:45;102335.31;;;6.67;100.00
57056;BME280;42945;51.718;5.324;2023-04-19T04:13:33;102308.97;;;6.67;100.00
57056;BME280;42945;51.718;5.324;2023-04-19T04:19:20;102511.22;;;7.64;100.00
57056;BME280;42945;51.718;5.324;2023-04-19T04:25:09;131245.66;;;175.28;100.00
57056;BME280;42945;51.718;5.324;2023-04-19T04:30:58;102333.59;;;6.08;100.00
57056;BME280;42945;51.718;5.324;2023-04-19T04:36:46;102487.31;;;6.68;100.00
57056;BME280;42945;51.718;5.324;2023-04-19T04:42:37;102372.50;;;5.88;100.00
57056;BME280;42945;51.718;5.324;2023-04-19T04:48:24;102451.47;;;6.56;100.00
57056;BME280;42945;51.718;5.324;2023-04-19T04:54:12;102450.84;;;6.40;100.00
57056;BME280;42945;51.718;5.324;2023-04-19T05:00:00;102223.59;;;5.03;100.00
57056;BME280;42945;51.718;5.324;2023-04-19T05:09:44;102434.81;;;6.54;100.00
57056;BME280;42945;51.718;5.324;2023-04-19T05:15:31;102502.28;;;6.67;100.00
57056;BME280;42945;51.718;5.324;2023-04-19T05:21:19;102392.41;;;6.68;100.00
57056;BME280;42945;51.718;5.324;2023-04-19T05:27:08;102455.78;;;6.62;100.00
57056;BME280;42945;51.718;5.324;2023-04-19T05:32:57;102486.56;;;6.60;100.00
57056;BME280;42945;51.718;5.324;2023-04-19T05:38:46;102435.56;;;6.61;100.00
57056;BME280;42945;51.718;5.324;2023-04-19T05:44:33;102454.53;;;6.86;100.00
57056;BME280;42945;51.718;5.324;2023-04-19T05:50:21;102465.72;;;7.02;100.00
57056;BME280;42945;51.718;5.324;2023-04-19T05:56:09;102454.22;;;7.06;100.00
57056;BME280;42945;51.718;5.324;2023-04-19T06:01:59;102428.56;;;7.14;100.00
57056;BME280;42945;51.718;5.324;2023-04-19T06:11:43;102573.94;;;8.01;100.00
57056;BME280;42945;51.718;5.324;2023-04-19T06:17:31;102680.13;;;8.70;100.00
57056;BME280;42945;51.718;5.324;2023-04-19T06:23:19;102337.50;;;6.92;100.00
57056;BME280;42945;51.718;5.324;2023-04-19T06:29:07;102414.41;;;7.63;100.00
57056;BME280;42945;51.718;5.324;2023-04-19T06:34:55;102987.66;;;7.45;100.00
57056;BME280;42945;51.718;5.324;2023-04-19T06:40:43;102414.69;;;7.93;100.00
57056;BME280;42945;51.718;5.324;2023-04-19T06:46:31;102433.09;;;7.98;100.00
57056;BME280;42945;51.718;5.324;2023-04-19T06:52:19;117919.31;;;97.57;100.00
57056;BME280;42945;51.718;5.324;2023-04-19T06:58:06;102412.13;;;8.29;100.00
57056;BME280;42945;51.718;5.324;2023-04-19T07:03:57;102578.94;;;8.99;100.00
57056;BME280;42945;51.718;5.324;2023-04-19T07:13:40;102295.72;;;7.98;100.00
57056;BME280;42945;51.718;5.324;2023-04-19T07:19:28;102270.72;;;8.11;100.00
57056;BME280;42945;51.718;5.324;2023-04-19T07:25:15;102435.66;;;8.80;100.00
57056;BME280;42945;51.718;5.324;2023-04-19T07:31:03;102423.00;;;9.26;100.00
57056;BME280;42945;51.718;5.324;2023-04-19T07:36:51;102284.03;;;8.78;100.00
57056;BME280;42945;51.718;5.324;2023-04-19T07:42:39;102390.53;;;9.19;100.00
57056;BME280;42945;51.718;5.324;2023-04-19T07:48:28;102558.41;;;9.81;100.00
57056;BME280;42945;51.718;5.324;2023-04-19T07:54:17;102423.66;;;9.34;100.00
57056;BME280;42945;51.718;5.324;2023-04-19T08:00:08;102575.28;;;10.72;100.00
57056;BME280;42945;51.718;5.324;2023-04-19T08:05:57;101932.53;;;8.96;100.00
57056;BME280;42945;51.718;5.324;2023-04-19T08:15:40;102405.69;;;9.77;100.00
57056;BME280;42945;51.718;5.324;2023-04-19T08:21:28;102427.56;;;9.85;100.00
57056;BME280;42945;51.718;5.324;2023-04-19T08:27:15;102151.63;;;8.83;100.00
57056;BME280;42945;51.718;5.324;2023-04-19T08:33:03;102225.72;;;9.13;95.29
57056;BME280;42945;51.718;5.324;2023-04-19T08:38:51;102402.25;;;10.61;95.85
57056;BME280;42945;51.718;5.324;2023-04-19T08:44:40;102403.72;;;10.13;90.65
57056;BME280;42945;51.718;5.324;2023-04-19T08:50:29;102369.94;;;10.20;85.35
57056;BME280;42945;51.718;5.324;2023-04-19T08:56:19;102405.31;;;10.19;81.11
57056;BME280;42945;51.718;5.324;2023-04-19T09:02:07;102372.16;;;10.05;80.12
57056;BME280;42945;51.718;5.324;2023-04-19T09:08:28;102263.59;;;9.46;76.22
57056;BME280;42945;51.718;5.324;2023-04-19T09:18:16;102380.88;;;9.81;87.83
57056;BME280;42945;51.718;5.324;2023-04-19T09:24:06;102363.19;;;10.10;88.92
57056;BME280;42945;51.718;5.324;2023-04-19T09:29:58;102387.03;;;10.39;84.77
57056;BME280;42945;51.718;5.324;2023-04-19T09:35:46;102398.88;;;10.56;78.50
57056;BME280;42945;51.718;5.324;2023-04-19T09:41:52;102375.47;;;10.42;78.21
57056;BME280;42945;51.718;5.324;2023-04-19T09:47:40;102221.88;;;10.08;82.72
57056;BME280;42945;51.718;5.324;2023-04-19T09:53:29;102286.66;;;9.71;75.70
57056;BME280;42945;51.718;5.324;2023-04-19T09:59:22;102222.91;;;9.49;72.00
57056;BME280;42945;51.718;5.324;2023-04-19T10:05:10;102329.06;;;10.80;75.20
57056;BME280;42945;51.718;5.324;2023-04-19T10:11:00;102364.13;;;11.15;66.39
57056;BME280;42945;51.718;5.324;2023-04-19T10:20:58;102306.50;;;10.69;62.41
57056;BME280;42945;51.718;5.324;2023-04-19T10:27:10;102316.81;;;11.27;60.65
57056;BME280;42945;51.718;5.324;2023-04-19T10:32:59;102338.50;;;10.89;59.88
57056;BME280;42945;51.718;5.324;2023-04-19T10:38:50;102326.66;;;10.99;59.99
57056;BME280;42945;51.718;5.324;2023-04-19T10:44:41;102261.69;;;10.59;62.79
57056;BME280;42945;51.718;5.324;2023-04-19T10:50:29;102221.38;;;10.50;58.01
57056;BME280;42945;51.718;5.324;2023-04-19T11:02:27;102348.69;;;10.76;60.44
57056;BME280;42945;51.718;5.324;2023-04-19T11:08:22;102304.38;;;11.03;58.74
57056;BME280;42945;51.718;5.324;2023-04-19T11:14:10;102248.47;;;10.83;57.81
57056;BME280;42945;51.718;5.324;2023-04-19T11:24:09;102347.88;;;11.25;57.05
57056;BME280;42945;51.718;5.324;2023-04-19T11:30:09;102210.13;;;10.92;56.29
57056;BME280;42945;51.718;5.324;2023-04-19T11:35:57;102228.66;;;11.17;55.45
57056;BME280;42945;51.718;5.324;2023-04-19T11:41:44;102293.09;;;11.91;55.13
57056;BME280;42945;51.718;5.324;2023-04-19T11:47:45;102263.13;;;12.10;52.97
57056;BME280;42945;51.718;5.324;2023-04-19T11:53:33;102152.09;;;11.04;50.92
57056;BME280;42945;51.718;5.324;2023-04-19T11:59:20;102312.75;;;12.09;50.68
57056;BME280;42945;51.718;5.324;2023-04-19T12:05:14;102176.41;;;11.17;47.37
57056;BME280;42945;51.718;5.324;2023-04-19T12:11:04;102241.75;;;12.33;48.68
57056;BME280;42945;51.718;5.324;2023-04-19T12:17:08;102270.72;;;12.60;47.62
57056;BME280;42945;51.718;5.324;2023-04-19T12:26:57;102266.41;;;12.57;46.52
57056;BME280;42945;51.718;5.324;2023-04-19T12:32:44;102245.59;;;12.67;44.98
57056;BME280;42945;51.718;5.324;2023-04-19T12:38:31;102206.72;;;13.03;43.90
57056;BME280;42945;51.718;5.324;2023-04-19T12:44:19;102221.50;;;13.29;43.64
57056;BME280;42945;51.718;5.324;2023-04-19T12:50:08;130639.28;;;181.38;35.45
57056;BME280;42945;51.718;5.324;2023-04-19T12:55:56;102257.81;;;13.50;40.18
57056;BME280;42945;51.718;5.324;2023-04-19T13:01:44;102222.31;;;13.31;41.03
57056;BME280;42945;51.718;5.324;2023-04-19T13:07:33;102642.56;;;14.33;42.16
57056;BME280;42945;51.718;5.324;2023-04-19T13:13:22;102083.72;;;12.56;41.25
57056;BME280;42945;51.718;5.324;2023-04-19T13:19:10;102214.44;;;13.09;40.51
57056;BME280;42945;51.718;5.324;2023-04-19T13:28:55;101832.47;;;13.95;42.59
57056;BME280;42945;51.718;5.324;2023-04-19T13:34:42;102146.75;;;13.68;41.20
57056;BME280;42945;51.718;5.324;2023-04-19T13:40:30;102135.00;;;13.72;41.36
57056;BME280;42945;51.718;5.324;2023-04-19T13:46:17;102191.31;;;13.47;40.48
57056;BME280;42945;51.718;5.324;2023-04-19T13:52:06;102051.94;;;12.72;41.16
57056;BME280;42945;51.718;5.324;2023-04-19T13:57:55;102155.81;;;13.83;42.32
57056;BME280;42945;51.718;5.324;2023-04-19T14:03:49;101896.53;;;12.38;40.82
57056;BME280;42945;51.718;5.324;2023-04-19T14:09:37;102048.41;;;13.08;40.62
57056;BME280;42945;51.718;5.324;2023-04-19T14:15:25;102014.81;;;13.59;40.62
57056;BME280;42945;51.718;5.324;2023-04-19T14:21:13;102220.56;;;14.39;40.08
57056;BME280;42945;51.718;5.324;2023-04-19T14:30:55;102070.53;;;13.99;40.47
57056;BME280;42945;51.718;5.324;2023-04-19T14:36:42;102135.97;;;13.71;38.90
57056;BME280;42945;51.718;5.324;2023-04-19T14:42:31;102108.59;;;14.03;40.28
57056;BME280;42945;51.718;5.324;2023-04-19T14:48:20;102099.53;;;14.05;40.52
57056;BME280;42945;51.718;5.324;2023-04-19T14:54:08;102086.59;;;14.15;39.97
57056;BME280;42945;51.718;5.324;2023-04-19T14:59:57;102157.09;;;15.11;40.25
57056;BME280;42945;51.718;5.324;2023-04-19T15:05:44;101962.25;;;14.12;39.00
57056;BME280;42945;51.718;5.324;2023-04-19T15:11:32;102046.84;;;14.60;40.25
57056;BME280;42945;51.718;5.324;2023-04-19T15:17:19;101986.03;;;14.49;39.12
57056;BME280;42945;51.718;5.324;2023-04-19T15:23:07;102020.31;;;14.41;39.30
57056;BME280;42945;51.718;5.324;2023-04-19T15:32:30;102008.94;;;14.85;40.47
57056;BME280;42945;51.718;5.324;2023-04-19T15:38:27;102049.75;;;14.55;39.32
57056;BME280;42945;51.718;5.324;2023-04-19T15:44:15;101962.66;;;15.00;39.99
57056;BME280;42945;51.718;5.324;2023-04-19T15:50:04;101894.97;;;14.23;38.39
57056;BME280;42945;51.718;5.324;2023-04-19T15:55:52;101920.06;;;14.51;100.00
57056;BME280;42945;51.718;5.324;2023-04-19T16:01:40;101989.63;;;15.11;38.73
57056;BME280;42945;51.718;5.324;2023-04-19T16:07:29;102037.09;;;15.22;38.79
57056;BME280;42945;51.718;5.324;2023-04-19T16:13:17;101999.56;;;15.54;41.74
57056;BME280;42945;51.718;5.324;2023-04-19T16:19:04;102006.31;;;15.75;39.70
57056;BME280;42945;51.718;5.324;2023-04-19T16:24:52;101988.28;;;15.79;40.16
57056;BME280;42945;51.718;5.324;2023-04-19T16:34:33;101881.50;;;15.17;38.99
57056;BME280;42945;51.718;5.324;2023-04-19T16:40:24;101755.50;;;14.66;40.06
57056;BME280;42945;51.718;5.324;2023-04-19T16:46:12;101946.69;;;16.31;36.85
57056;BME280;42945;51.718;5.324;2023-04-19T16:52:00;102116.66;;;17.10;38.16
57056;BME280;42945;51.718;5.324;2023-04-19T16:57:48;101967.41;;;17.10;38.52
57056;BME280;42945;51.718;5.324;2023-04-19T17:03:37;101986.56;;;17.04;37.76
57056;BME280;42945;51.718;5.324;2023-04-19T17:09:26;101806.25;;;16.89;38.70
57056;BME280;42945;51.718;5.324;2023-04-19T17:15:14;101968.63;;;16.50;40.75
57056;BME280;42945;51.718;5.324;2023-04-19T17:21:04;102006.09;;;17.06;39.78
57056;BME280;42945;51.718;5.324;2023-04-19T17:26:55;101806.97;;;15.84;40.33
57056;BME280;42945;51.718;5.324;2023-04-19T17:36:32;101642.06;;;16.49;38.45
57056;BME280;42945;51.718;5.324;2023-04-19T17:42:20;101956.66;;;16.56;38.82
57056;BME280;42945;51.718;5.324;2023-04-19T17:48:08;101970.41;;;15.35;40.62
57056;BME280;42945;51.718;5.324;2023-04-19T17:53:57;101851.84;;;12.64;45.33
57056;BME280;42945;51.718;5.324;2023-04-19T17:59:45;101883.22;;;12.38;47.50
57056;BME280;42945;51.718;5.324;2023-04-19T18:05:32;101984.94;;;12.06;49.46
57056;BME280;42945;51.718;5.324;2023-04-19T18:11:20;101995.25;;;11.72;50.35
57056;BME280;42945;51.718;5.324;2023-04-19T18:17:10;101978.56;;;11.50;49.27
57056;BME280;42945;51.718;5.324;2023-04-19T18:22:59;101995.91;;;11.16;99.06
57056;BME280;42945;51.718;5.324;2023-04-19T18:28:48;102010.06;;;10.94;54.74
57056;BME280;42945;51.718;5.324;2023-04-19T18:34:37;101899.78;;;9.97;58.23
57056;BME280;42945;51.718;5.324;2023-04-19T18:40:25;101863.44;;;9.77;62.68
57056;BME280;42945;51.718;5.324;2023-04-19T18:46:13;102016.41;;;10.21;67.12
57056;BME280;42945;51.718;5.324;2023-04-19T18:52:01;102031.50;;;10.19;67.29
57056;BME280;42945;51.718;5.324;2023-04-19T18:57:50;102041.00;;;9.76;71.51
57056;BME280;42945;51.718;5.324;2023-04-19T19:03:37;101969.31;;;9.03;72.91
57056;BME280;42945;51.718;5.324;2023-04-19T19:09:25;102015.91;;;9.34;73.60
57056;BME280;42945;51.718;5.324;2023-04-19T19:15:14;102068.88;;;9.07;74.32
57056;BME280;42945;51.718;5.324;2023-04-19T19:21:01;102072.38;;;9.08;71.08
57056;BME280;42945;51.718;5.324;2023-04-19T19:26:49;102070.00;;;8.99;61.79
57056;BME280;42945;51.718;5.324;2023-04-19T19:32:37;102034.22;;;9.15;55.90
57056;BME280;42945;51.718;5.324;2023-04-19T19:38:27;102122.16;;;8.95;54.96
57056;BME280;42945;51.718;5.324;2023-04-19T19:44:14;102040.91;;;8.71;56.15
57056;BME280;42945;51.718;5.324;2023-04-19T19:50:05;102061.41;;;8.62;55.12
57056;BME280;42945;51.718;5.324;2023-04-19T19:55:54;102048.00;;;8.37;57.62
57056;BME280;42945;51.718;5.324;2023-04-19T20:01:43;101975.53;;;7.52;58.08
57056;BME280;42945;51.718;5.324;2023-04-19T20:07:37;102089.38;;;8.08;60.22
57056;BME280;42945;51.718;5.324;2023-04-19T20:13:26;102066.63;;;8.03;61.73
57056;BME280;42945;51.718;5.324;2023-04-19T20:19:15;102111.00;;;7.88;62.72
57056;BME280;42945;51.718;5.324;2023-04-19T20:25:03;102085.25;;;7.64;64.57
57056;BME280;42945;51.718;5.324;2023-04-19T20:30:53;102082.50;;;7.67;66.71
57056;BME280;42945;51.718;5.324;2023-04-19T20:40:30;102107.91;;;7.37;65.70
57056;BME280;42945;51.718;5.324;2023-04-19T20:46:18;101936.66;;;6.54;67.39
57056;BME280;42945;51.718;5.324;2023-04-19T20:52:07;101980.69;;;6.49;72.02
57056;BME280;42945;51.718;5.324;2023-04-19T20:57:54;102129.72;;;7.06;72.23
57056;BME280;42945;51.718;5.324;2023-04-19T21:03:43;102101.09;;;6.89;69.46
57056;BME280;42945;51.718;5.324;2023-04-19T21:09:32;102130.47;;;6.70;75.91
57056;BME280;42945;51.718;5.324;2023-04-19T21:15:20;102073.09;;;6.41;75.38
57056;BME280;42945;51.718;5.324;2023-04-19T21:21:09;102133.91;;;6.74;74.12
57056;BME280;42945;51.718;5.324;2023-04-19T21:26:56;102093.47;;;6.75;71.95
57056;BME280;42945;51.718;5.324;2023-04-19T21:32:45;102106.06;;;6.61;74.18
57056;BME280;42945;51.718;5.324;2023-04-19T21:38:33;102137.97;;;6.47;73.33
57056;BME280;42945;51.718;5.324;2023-04-19T21:44:21;102034.72;;;5.81;71.08
57056;BME280;42945;51.718;5.324;2023-04-19T21:50:09;102112.63;;;6.41;71.08
57056;BME280;42945;51.718;5.324;2023-04-19T21:55:57;102131.19;;;6.35;66.43
57056;BME280;42945;51.718;5.324;2023-04-19T22:01:44;101987.00;;;5.53;71.40
57056;BME280;42945;51.718;5.324;2023-04-19T22:07:33;102263.91;;;6.79;66.85
57056;BME280;42945;51.718;5.324;2023-04-19T22:13:25;102007.09;;;5.57;66.08
57056;BME280;42945;51.718;5.324;2023-04-19T22:19:13;102090.53;;;6.03;63.77
57056;BME280;42945;51.718;5.324;2023-04-19T22:25:00;102140.84;;;5.85;71.62
57056;BME280;42945;51.718;5.324;2023-04-19T22:30:50;101893.16;;;4.52;70.88
57056;BME280;42945;51.718;5.324;2023-04-19T22:36:38;102101.50;;;5.76;68.67
57056;BME280;42945;51.718;5.324;2023-04-19T22:42:26;102133.19;;;5.69;68.24
57056;BME280;42945;51.718;5.324;2023-04-19T22:48:14;102132.47;;;5.60;70.89
57056;BME280;42945;51.718;5.324;2023-04-19T22:54:04;101992.75;;;4.68;68.76
57056;BME280;42945;51.718;5.324;2023-04-19T22:59:51;101996.44;;;4.58;76.63
57056;BME280;42945;51.718;5.324;2023-04-19T23:05:39;102026.41;;;4.41;82.29
57056;BME280;42945;51.718;5.324;2023-04-19T23:11:28;102063.38;;;4.92;80.73
57056;BME280;42945;51.718;5.324;2023-04-19T23:17:16;102031.66;;;4.41;85.42
57056;BME280;42945;51.718;5.324;2023-04-19T23:23:04;102081.19;;;4.72;84.28
57056;BME280;42945;51.718;5.324;2023-04-19T23:28:55;101967.59;;;3.83;88.78
57056;BME280;42945;51.718;5.324;2023-04-19T23:34:43;102042.31;;;4.30;93.25
57056;BME280;42945;51.718;5.324;2023-04-19T23:44:20;101960.81;;;3.64;96.20
57056;BME280;42945;51.718;5.324;2023-04-19T23:50:09;102050.19;;;4.29;96.40
57056;BME280;42945;51.718;5.324;2023-04-19T23:55:56;102006.25;;;3.70;96.54
